Time;durP1;ratioP1;P1;durP2;ratioP2;P2;SDS_P1;SDS_P2;PMS_P1;PMS_P2;Temp;Humidity;BMP_temperature;BMP_pressure;BME280_temperature;BME280_humidity;BME280_pressure;Samples;Min_cycle;Max_cycle;Signal;HPM_P1;HPM_P2
2022/12/24 00:00:14;;;;;;;37.63;35.40;;;;;;;;;;5122176;28;20845;-82
2022/12/24 00:02:41;;;;;;;39.00;36.60;;;;;;;;;;5121824;28;20434;-81
2022/12/24 00:05:09;;;;;;;39.30;36.80;;;;;;;;;;5121810;28;20419;-82
2022/12/24 00:07:36;;;;;;;36.10;34.13;;;;;;;;;;5121918;28;20456;-83
2022/12/24 00:10:05;;;;;;;37.37;35.07;;;;;;;;;;5121809;28;20492;-82
2022/12/24 00:12:32;;;;;;;34.17;31.80;;;;;;;;;;5120711;28;20496;-82
2022/12/24 00:14:59;;;;;;;32.20;30.00;;;;;;;;;;5121050;28;20423;-82
2022/12/24 00:17:26;;;;;;;30.90;28.90;;;;;;;;;;5122082;28;20451;-82
2022/12/24 00:19:53;;;;;;;30.30;28.80;;;;;;;;;;5121223;28;20446;-83
2022/12/24 00:22:20;;;;;;;32.13;30.43;;;;;;;;;;5121217;28;20448;-82
2022/12/24 00:24:47;;;;;;;28.63;27.13;;;;;;;;;;5121590;28;20505;-82
2022/12/24 00:27:16;;;;;;;29.03;27.53;;;;;;;;;;5121038;28;20459;-81
2022/12/24 00:29:43;;;;;;;29.90;28.40;;;;;;;;;;5120706;28;20453;-81
2022/12/24 00:32:10;;;;;;;30.00;28.37;;;;;;;;;;5121263;28;20475;-82
2022/12/24 00:34:37;;;;;;;30.13;28.00;;;;;;;;;;5120860;28;20459;-82
2022/12/24 00:37:04;;;;;;;29.73;27.83;;;;;;;;;;5120709;28;20467;-82
2022/12/24 00:39:31;;;;;;;29.03;27.33;;;;;;;;;;5121651;28;20487;-81
2022/12/24 00:41:58;;;;;;;30.13;28.43;;;;;;;;;;5120825;28;20425;-81
2022/12/24 00:44:26;;;;;;;29.97;28.10;;;;;;;;;;5120873;28;21000;-82
2022/12/24 00:46:54;;;;;;;32.13;30.17;;;;;;;;;;5121570;28;20491;-82
2022/12/24 00:49:22;;;;;;;29.10;27.40;;;;;;;;;;5121121;28;20415;-82
2022/12/24 00:51:49;;;;;;;28.80;27.30;;;;;;;;;;5122739;28;20451;-82
2022/12/24 00:54:16;;;;;;;29.03;27.20;;;;;;;;;;5121621;28;21006;-82
2022/12/24 00:56:43;;;;;;;29.93;28.03;;;;;;;;;;5123014;28;20499;-82
2022/12/24 00:59:10;;;;;;;31.30;29.10;;;;;;;;;;5122339;28;20446;-83
2022/12/24 01:01:38;;;;;;;30.63;28.30;;;;;;;;;;5122728;28;20440;-83
2022/12/24 01:06:50;;;;;;;29.37;27.77;;;;;;;;;;5122140;28;20442;-81
2022/12/24 01:09:17;;;;;;;32.73;30.00;;;;;;;;;;5123090;28;20903;-82
2022/12/24 01:11:45;;;;;;;30.33;28.33;;;;;;;;;;5121590;28;20478;-83
2022/12/24 01:14:12;;;;;;;31.63;29.73;;;;;;;;;;5121516;28;20836;-83
2022/12/24 01:16:40;;;;;;;28.83;27.03;;;;;;;;;;5121707;28;20454;-82
2022/12/24 01:19:07;;;;;;;31.57;29.77;;;;;;;;;;5122672;28;20406;-83
2022/12/24 01:21:34;;;;;;;32.90;30.97;;;;;;;;;;5122435;28;20451;-83
2022/12/24 01:24:01;;;;;;;31.60;29.77;;;;;;;;;;5124722;28;20918;-83
2022/12/24 01:26:28;;;;;;;32.60;30.47;;;;;;;;;;5127212;28;20492;-83
2022/12/24 01:28:56;;;;;;;31.70;28.77;;;;;;;;;;5127192;28;20410;-82
2022/12/24 01:31:23;;;;;;;29.60;28.07;;;;;;;;;;5126623;28;20505;-83
2022/12/24 01:33:51;;;;;;;31.30;29.50;;;;;;;;;;5125084;28;20451;-81
2022/12/24 01:36:18;;;;;;;29.27;27.53;;;;;;;;;;5127026;28;20463;-83
2022/12/24 01:38:45;;;;;;;27.90;26.30;;;;;;;;;;5125856;28;20444;-83
2022/12/24 01:44:16;;;;;;;32.03;29.57;;;;;;;;;;5125720;28;20415;-82
2022/12/24 01:46:43;;;;;;;28.53;27.03;;;;;;;;;;5125979;28;20448;-81
2022/12/24 01:49:12;;;;;;;29.30;27.43;;;;;;;;;;5126165;28;20421;-82
2022/12/24 01:51:40;;;;;;;29.20;27.37;;;;;;;;;;5125482;27;20479;-81
2022/12/24 01:54:10;;;;;;;27.50;25.60;;;;;;;;;;5125276;28;20449;-83
2022/12/24 01:56:40;;;;;;;29.60;27.90;;;;;;;;;;5126091;28;20879;-82
2022/12/24 01:59:09;;;;;;;31.80;28.83;;;;;;;;;;5126011;27;20435;-82
2022/12/24 02:01:36;;;;;;;30.60;27.90;;;;;;;;;;5126693;27;20778;-81
2022/12/24 02:04:05;;;;;;;28.47;26.20;;;;;;;;;;5125167;28;20431;-82
2022/12/24 02:06:33;;;;;;;32.33;29.60;;;;;;;;;;5125596;28;21054;-82
2022/12/24 02:09:00;;;;;;;29.77;27.57;;;;;;;;;;5126665;28;20418;-83
2022/12/24 02:11:27;;;;;;;30.57;27.67;;;;;;;;;;5126060;28;20474;-82
2022/12/24 02:13:56;;;;;;;29.93;27.90;;;;;;;;;;5124994;28;20455;-82
2022/12/24 02:16:29;;;;;;;31.50;28.73;;;;;;;;;;5125377;28;20442;-83
2022/12/24 02:19:00;;;;;;;29.80;27.50;;;;;;;;;;5126178;27;20858;-82
2022/12/24 02:21:33;;;;;;;31.43;27.73;;;;;;;;;;5126530;28;20432;-82
2022/12/24 02:24:12;;;;;;;29.83;27.40;;;;;;;;;;5125204;28;20412;-83
2022/12/24 02:26:53;;;;;;;32.10;29.13;;;;;;;;;;5126349;28;20462;-82
2022/12/24 02:29:35;;;;;;;32.10;28.97;;;;;;;;;;5126399;28;20447;-82
2022/12/24 02:32:06;;;;;;;28.13;25.63;;;;;;;;;;5126105;28;20456;-83
2022/12/24 02:34:37;;;;;;;27.67;25.87;;;;;;;;;;5125680;27;20447;-82
2022/12/24 02:37:07;;;;;;;30.20;27.57;;;;;;;;;;5126720;28;20454;-83
2022/12/24 02:39:37;;;;;;;34.80;30.47;;;;;;;;;;5126135;28;20497;-82
2022/12/24 02:42:05;;;;;;;29.33;26.57;;;;;;;;;;5125721;28;20465;-82
2022/12/24 02:44:36;;;;;;;30.17;27.40;;;;;;;;;;5125304;28;20455;-82
2022/12/24 02:47:06;;;;;;;29.87;26.97;;;;;;;;;;5126083;28;20470;-83
2022/12/24 02:49:33;;;;;;;28.10;25.40;;;;;;;;;;5125994;28;20465;-82
2022/12/24 02:51:59;;;;;;;28.57;26.37;;;;;;;;;;5125667;28;20524;-84
2022/12/24 02:54:27;;;;;;;32.70;27.17;;;;;;;;;;5124514;28;20853;-81
2022/12/24 02:57:02;;;;;;;28.87;26.70;;;;;;;;;;5125193;28;20464;-81
2022/12/24 02:59:42;;;;;;;28.97;26.67;;;;;;;;;;5126066;28;20450;-82
2022/12/24 03:02:18;;;;;;;30.93;27.83;;;;;;;;;;5124736;28;20994;-81
2022/12/24 03:04:48;;;;;;;29.17;25.37;;;;;;;;;;5124255;28;20444;-82
2022/12/24 03:07:20;;;;;;;27.87;25.33;;;;;;;;;;5125076;28;20525;-82
2022/12/24 03:10:08;;;;;;;32.87;28.10;;;;;;;;;;5124697;28;20950;-83
2022/12/24 03:12:36;;;;;;;28.37;25.50;;;;;;;;;;5125030;28;20472;-83
2022/12/24 03:15:05;;;;;;;32.10;28.20;;;;;;;;;;5124726;28;20450;-81
2022/12/24 03:17:35;;;;;;;26.47;24.70;;;;;;;;;;5124320;28;20455;-82
2022/12/24 03:20:02;;;;;;;28.70;26.23;;;;;;;;;;5125366;28;20402;-83
2022/12/24 03:22:31;;;;;;;26.53;24.57;;;;;;;;;;5125540;27;20413;-82
2022/12/24 03:24:58;;;;;;;27.27;25.00;;;;;;;;;;5124403;28;20467;-82
2022/12/24 03:27:26;;;;;;;27.33;25.10;;;;;;;;;;5124815;28;20460;-82
2022/12/24 03:29:53;;;;;;;30.70;27.00;;;;;;;;;;5124447;28;20452;-83
2022/12/24 03:32:23;;;;;;;29.80;27.40;;;;;;;;;;5124658;28;20508;-82
2022/12/24 03:34:52;;;;;;;27.77;25.10;;;;;;;;;;5124120;28;20937;-82
2022/12/24 03:37:19;;;;;;;29.23;25.60;;;;;;;;;;5125155;28;20474;-82
2022/12/24 03:39:46;;;;;;;27.43;24.70;;;;;;;;;;5124955;28;20842;-82
2022/12/24 03:42:13;;;;;;;28.53;25.77;;;;;;;;;;5125054;28;20450;-81
2022/12/24 03:44:40;;;;;;;34.03;27.60;;;;;;;;;;5125028;28;20423;-81
2022/12/24 03:47:07;;;;;;;26.97;24.80;;;;;;;;;;5124310;28;20963;-82
2022/12/24 03:49:34;;;;;;;29.70;27.03;;;;;;;;;;5123783;28;20410;-82
2022/12/24 03:52:02;;;;;;;25.40;23.37;;;;;;;;;;5124335;28;20491;-82
2022/12/24 03:54:29;;;;;;;24.53;23.03;;;;;;;;;;5123897;28;20461;-81
2022/12/24 03:56:56;;;;;;;27.90;25.23;;;;;;;;;;5123930;28;20486;-82
2022/12/24 03:59:23;;;;;;;26.10;24.10;;;;;;;;;;5124344;28;20455;-81
2022/12/24 04:01:50;;;;;;;27.40;24.90;;;;;;;;;;5124589;28;20440;-83
2022/12/24 04:04:17;;;;;;;25.90;23.70;;;;;;;;;;5124050;28;20501;-82
2022/12/24 04:06:44;;;;;;;27.70;24.87;;;;;;;;;;5123899;28;20452;-81
2022/12/24 04:09:12;;;;;;;24.53;22.57;;;;;;;;;;5123828;28;20424;-81
2022/12/24 04:11:39;;;;;;;24.43;22.60;;;;;;;;;;5124167;28;20480;-82
2022/12/24 04:14:06;;;;;;;26.47;24.00;;;;;;;;;;5122995;27;20465;-83
2022/12/24 04:16:33;;;;;;;25.20;23.17;;;;;;;;;;5124542;28;20524;-82
2022/12/24 04:19:00;;;;;;;25.20;22.60;;;;;;;;;;5123072;28;20455;-83
2022/12/24 04:21:27;;;;;;;25.13;22.50;;;;;;;;;;5123938;28;20440;-82
2022/12/24 04:23:54;;;;;;;29.80;22.17;;;;;;;;;;5122693;28;20489;-82
2022/12/24 04:26:23;;;;;;;27.10;24.53;;;;;;;;;;5122682;28;20492;-82
2022/12/24 04:28:50;;;;;;;25.43;22.70;;;;;;;;;;5123253;28;20434;-82
2022/12/24 04:31:17;;;;;;;25.63;22.83;;;;;;;;;;5123521;28;20474;-83
2022/12/24 04:33:45;;;;;;;28.27;23.43;;;;;;;;;;5122204;28;20452;-81
2022/12/24 04:36:13;;;;;;;24.37;21.73;;;;;;;;;;5123495;28;20499;-81
2022/12/24 04:38:40;;;;;;;25.23;22.27;;;;;;;;;;5123414;28;20439;-83
2022/12/24 04:41:07;;;;;;;26.30;23.50;;;;;;;;;;5123471;28;20467;-82
2022/12/24 04:43:36;;;;;;;21.43;20.00;;;;;;;;;;5123120;28;20426;-82
2022/12/24 04:46:06;;;;;;;24.50;22.20;;;;;;;;;;5122652;28;20421;-82
2022/12/24 04:48:34;;;;;;;23.93;21.80;;;;;;;;;;5123363;28;20432;-82
2022/12/24 04:51:02;;;;;;;29.67;22.57;;;;;;;;;;5123446;28;20479;-82
2022/12/24 04:53:29;;;;;;;21.53;19.90;;;;;;;;;;5122315;28;20443;-82
2022/12/24 04:55:56;;;;;;;25.37;21.63;;;;;;;;;;5122574;28;20520;-82
2022/12/24 04:58:23;;;;;;;25.33;22.80;;;;;;;;;;5122708;28;20848;-82
2022/12/24 05:00:52;;;;;;;30.40;23.63;;;;;;;;;;5122787;28;20454;-82
2022/12/24 05:03:19;;;;;;;26.40;23.50;;;;;;;;;;5122662;28;20422;-82
2022/12/24 05:05:46;;;;;;;28.33;22.60;;;;;;;;;;5122776;28;20505;-82
2022/12/24 05:08:13;;;;;;;24.00;21.77;;;;;;;;;;5122773;28;20526;-82
2022/12/24 05:10:40;;;;;;;24.97;21.00;;;;;;;;;;5122994;28;20446;-82
2022/12/24 05:13:07;;;;;;;26.80;22.33;;;;;;;;;;5121999;28;20432;-81
2022/12/24 05:15:34;;;;;;;25.57;23.10;;;;;;;;;;5122869;28;20445;-81
2022/12/24 05:18:02;;;;;;;28.00;21.90;;;;;;;;;;5122293;28;20431;-81
2022/12/24 05:20:29;;;;;;;23.50;21.57;;;;;;;;;;5122984;28;20458;-81
2022/12/24 05:28:25;;;;;;;23.93;21.70;;;;;;;;;;5122737;28;20378;-82
2022/12/24 05:30:52;;;;;;;25.03;22.57;;;;;;;;;;5122443;28;20421;-81
2022/12/24 05:33:21;;;;;;;31.80;23.00;;;;;;;;;;5121126;28;20463;-82
2022/12/24 05:35:48;;;;;;;27.97;21.73;;;;;;;;;;5121598;28;20509;-81
2022/12/24 05:38:15;;;;;;;27.33;23.60;;;;;;;;;;5122140;28;20443;-82
2022/12/24 05:40:42;;;;;;;29.70;23.43;;;;;;;;;;5121496;27;20458;-81
2022/12/24 05:43:08;;;;;;;25.03;22.50;;;;;;;;;;5121189;28;20839;-82
2022/12/24 05:45:35;;;;;;;32.50;22.90;;;;;;;;;;5121487;28;20488;-82
2022/12/24 05:48:02;;;;;;;24.53;21.60;;;;;;;;;;5122591;28;20417;-83
2022/12/24 05:50:31;;;;;;;35.57;23.13;;;;;;;;;;5121413;28;20435;-82
2022/12/24 05:52:58;;;;;;;28.70;23.73;;;;;;;;;;5122180;28;20471;-82
2022/12/24 05:55:25;;;;;;;31.07;24.33;;;;;;;;;;5122086;28;20890;-81
2022/12/24 05:57:52;;;;;;;41.93;23.10;;;;;;;;;;5121928;28;20450;-82
2022/12/24 06:00:19;;;;;;;27.57;24.57;;;;;;;;;;5122060;28;20443;-82
2022/12/24 06:02:46;;;;;;;29.33;23.40;;;;;;;;;;5120807;27;20466;-82
2022/12/24 06:05:13;;;;;;;25.33;22.83;;;;;;;;;;5121455;28;20472;-82
2022/12/24 06:07:42;;;;;;;24.13;22.23;;;;;;;;;;5121492;28;20443;-81
2022/12/24 06:10:09;;;;;;;27.00;23.13;;;;;;;;;;5123096;28;20764;-81
2022/12/24 06:12:36;;;;;;;32.50;22.90;;;;;;;;;;5125284;27;20478;-82
2022/12/24 06:15:04;;;;;;;34.73;23.73;;;;;;;;;;5124741;28;20413;-81
2022/12/24 06:17:31;;;;;;;28.57;22.43;;;;;;;;;;5124614;28;20911;-82
2022/12/24 06:19:58;;;;;;;34.70;24.70;;;;;;;;;;5125767;28;20432;-82
2022/12/24 06:22:25;;;;;;;35.03;25.27;;;;;;;;;;5125242;28;20824;-82
2022/12/24 06:24:54;;;;;;;25.33;23.00;;;;;;;;;;5124784;28;20410;-81
2022/12/24 06:27:21;;;;;;;29.63;26.07;;;;;;;;;;5124768;28;20467;-81
2022/12/24 06:29:48;;;;;;;29.50;26.50;;;;;;;;;;5125170;28;20447;-81
2022/12/24 06:32:15;;;;;;;32.47;24.03;;;;;;;;;;5124707;28;20475;-82
2022/12/24 06:34:42;;;;;;;23.33;21.33;;;;;;;;;;5123710;28;20463;-82
2022/12/24 06:37:17;;;;;;;30.83;25.10;;;;;;;;;;5125486;28;20475;-82
2022/12/24 06:39:44;;;;;;;29.87;25.47;;;;;;;;;;5124929;28;20465;-82
2022/12/24 06:42:12;;;;;;;34.07;24.70;;;;;;;;;;5124958;27;20479;-83
2022/12/24 06:44:39;;;;;;;39.43;26.87;;;;;;;;;;5124347;27;20447;-83
2022/12/24 06:47:06;;;;;;;34.40;25.13;;;;;;;;;;5124332;28;20427;-81
2022/12/24 06:49:33;;;;;;;27.43;24.53;;;;;;;;;;5124968;28;20440;-81
2022/12/24 06:52:00;;;;;;;32.90;26.80;;;;;;;;;;5125315;28;20503;-81
2022/12/24 06:54:27;;;;;;;38.47;27.87;;;;;;;;;;5123748;28;20443;-82
2022/12/24 06:56:54;;;;;;;34.50;27.57;;;;;;;;;;5124379;28;20474;-82
2022/12/24 06:59:22;;;;;;;32.90;27.83;;;;;;;;;;5124475;28;20426;-82
2022/12/24 07:01:49;;;;;;;36.93;26.50;;;;;;;;;;5123778;27;20489;-82
2022/12/24 07:04:16;;;;;;;26.10;23.87;;;;;;;;;;5124266;28;20849;-81
2022/12/24 07:06:43;;;;;;;28.57;25.10;;;;;;;;;;5124152;28;20452;-82
2022/12/24 07:09:12;;;;;;;33.23;25.93;;;;;;;;;;5123937;28;20457;-82
2022/12/24 07:11:39;;;;;;;33.37;25.90;;;;;;;;;;5123505;27;20483;-82
2022/12/24 07:14:06;;;;;;;32.07;25.77;;;;;;;;;;5122363;28;20448;-82
2022/12/24 07:16:34;;;;;;;32.20;26.27;;;;;;;;;;5122353;28;20516;-82
2022/12/24 07:19:01;;;;;;;31.33;27.83;;;;;;;;;;5121967;28;20446;-80
2022/12/24 07:21:28;;;;;;;27.13;24.43;;;;;;;;;;5121476;28;20493;-81
2022/12/24 07:23:55;;;;;;;35.23;26.77;;;;;;;;;;5120797;28;20421;-82
2022/12/24 07:26:22;;;;;;;34.20;26.90;;;;;;;;;;5121648;28;20490;-81
2022/12/24 07:28:49;;;;;;;30.27;27.17;;;;;;;;;;5122350;28;20514;-80
2022/12/24 07:31:16;;;;;;;32.70;28.13;;;;;;;;;;5121945;28;20430;-80
2022/12/24 07:33:44;;;;;;;34.07;24.80;;;;;;;;;;5120763;28;20487;-82
2022/12/24 07:36:16;;;;;;;26.67;24.10;;;;;;;;;;5121368;28;20462;-81
2022/12/24 07:38:43;;;;;;;28.47;25.53;;;;;;;;;;5120735;28;21007;-81
2022/12/24 07:41:10;;;;;;;32.57;27.07;;;;;;;;;;5121585;28;20439;-81
2022/12/24 07:43:37;;;;;;;27.50;25.40;;;;;;;;;;5118702;28;20512;-81
2022/12/24 07:46:04;;;;;;;31.33;26.53;;;;;;;;;;5119536;28;20470;-80
2022/12/24 07:48:31;;;;;;;29.47;26.73;;;;;;;;;;5119456;28;20448;-80
2022/12/24 07:51:00;;;;;;;36.43;26.77;;;;;;;;;;5120751;28;20417;-79
2022/12/24 07:53:27;;;;;;;27.37;24.40;;;;;;;;;;5117278;28;20453;-79
2022/12/24 07:55:55;;;;;;;35.13;28.67;;;;;;;;;;5118242;28;20590;-82
2022/12/24 07:58:22;;;;;;;31.97;28.73;;;;;;;;;;5121191;27;20494;-81
2022/12/24 08:00:49;;;;;;;34.67;29.53;;;;;;;;;;5118319;28;20471;-82
2022/12/24 08:03:17;;;;;;;33.93;30.20;;;;;;;;;;5117755;27;20826;-83
2022/12/24 08:05:44;;;;;;;38.83;31.13;;;;;;;;;;5110831;28;20536;-86
2022/12/24 08:08:13;;;;;;;32.90;29.80;;;;;;;;;;5115971;28;20425;-85
2022/12/24 08:10:41;;;;;;;374.10;154.85;;;;;;;;;;5119771;28;20505;-83
2022/12/24 08:13:08;;;;;;;34.47;31.03;;;;;;;;;;5118750;28;20273;-83
2022/12/24 08:15:35;;;;;;;37.03;33.03;;;;;;;;;;5118593;27;20483;-81
2022/12/24 08:18:02;;;;;;;41.70;32.30;;;;;;;;;;5119596;28;20443;-80
2022/12/24 08:20:29;;;;;;;40.00;34.47;;;;;;;;;;5122259;28;20411;-83
2022/12/24 08:22:56;;;;;;;36.03;32.27;;;;;;;;;;5115020;28;20494;-86
2022/12/24 08:25:24;;;;;;;35.03;31.53;;;;;;;;;;5097134;28;20451;-82
2022/12/24 08:27:51;;;;;;;32.53;29.53;;;;;;;;;;5097317;28;20513;-82
2022/12/24 08:30:18;;;;;;;35.50;32.10;;;;;;;;;;5098827;28;20498;-82
2022/12/24 08:32:45;;;;;;;34.03;31.43;;;;;;;;;;5097204;28;20456;-90
2022/12/24 08:35:12;;;;;;;37.00;32.20;;;;;;;;;;5096924;28;20471;-79
2022/12/24 08:37:39;;;;;;;33.73;30.40;;;;;;;;;;5098815;28;20502;-84
2022/12/24 08:40:07;;;;;;;34.53;30.90;;;;;;;;;;5098802;28;20844;-83
2022/12/24 08:42:35;;;;;;;37.63;32.80;;;;;;;;;;5099631;28;20506;-84
2022/12/24 08:45:02;;;;;;;28.10;25.90;;;;;;;;;;5099381;28;20456;-86
2022/12/24 08:47:29;;;;;;;37.20;33.37;;;;;;;;;;5099931;28;20499;-84
2022/12/24 08:49:56;;;;;;;35.53;31.53;;;;;;;;;;5100369;28;20446;-85
2022/12/24 08:52:23;;;;;;;36.10;32.57;;;;;;;;;;5100299;28;20483;-85
2022/12/24 08:54:50;;;;;;;39.87;32.33;;;;;;;;;;5100098;28;20949;-85
2022/12/24 08:57:19;;;;;;;34.10;31.10;;;;;;;;;;5102069;28;20581;-85
2022/12/24 08:59:47;;;;;;;32.90;28.30;;;;;;;;;;5101271;28;20454;-83
2022/12/24 09:02:14;;;;;;;38.73;30.53;;;;;;;;;;5099175;28;20440;-84
2022/12/24 09:04:41;;;;;;;31.40;28.73;;;;;;;;;;5098316;28;20457;-84
2022/12/24 09:07:08;;;;;;;27.67;25.37;;;;;;;;;;5099402;28;20583;-86
2022/12/24 09:09:36;;;;;;;28.07;26.17;;;;;;;;;;5099113;28;20432;-85
2022/12/24 09:12:04;;;;;;;30.83;28.43;;;;;;;;;;5099917;28;21140;-85
2022/12/24 09:14:31;;;;;;;31.20;28.27;;;;;;;;;;5106692;28;20484;-85
2022/12/24 09:17:00;;;;;;;30.40;27.70;;;;;;;;;;5119719;28;20459;-85
2022/12/24 09:19:27;;;;;;;39.00;29.43;;;;;;;;;;5120127;28;20470;-87
2022/12/24 09:21:54;;;;;;;27.77;25.27;;;;;;;;;;5120216;28;20477;-85
2022/12/24 09:24:21;;;;;;;27.70;24.70;;;;;;;;;;5119622;28;20463;-82
2022/12/24 09:26:48;;;;;;;27.17;25.10;;;;;;;;;;5117379;28;20477;-81
2022/12/24 09:29:16;;;;;;;30.37;27.30;;;;;;;;;;5117215;28;20489;-81
2022/12/24 09:31:43;;;;;;;27.60;25.13;;;;;;;;;;5117386;28;20448;-80
2022/12/24 09:34:11;;;;;;;28.13;25.30;;;;;;;;;;5115713;27;20907;-81
2022/12/24 09:36:38;;;;;;;29.53;26.47;;;;;;;;;;5117385;28;20472;-81
2022/12/24 09:39:05;;;;;;;24.97;22.87;;;;;;;;;;5116754;28;20407;-81
2022/12/24 09:41:39;;;;;;;26.10;23.63;;;;;;;;;;5110454;28;20462;-82
2022/12/24 09:44:12;;;;;;;28.10;25.17;;;;;;;;;;5119308;28;20436;-81
2022/12/24 09:46:41;;;;;;;26.07;23.40;;;;;;;;;;5122681;27;20474;-81
2022/12/24 09:49:10;;;;;;;32.07;27.40;;;;;;;;;;5122607;28;20451;-81
2022/12/24 09:51:40;;;;;;;25.30;22.60;;;;;;;;;;5122537;28;20440;-81
2022/12/24 09:54:11;;;;;;;27.47;24.63;;;;;;;;;;5120771;28;20855;-81
2022/12/24 09:56:39;;;;;;;23.63;21.73;;;;;;;;;;5120942;28;21057;-81
2022/12/24 09:59:10;;;;;;;26.70;24.20;;;;;;;;;;5121180;27;21337;-81
2022/12/24 10:01:37;;;;;;;25.27;23.53;;;;;;;;;;5120698;28;20398;-79
2022/12/24 10:04:05;;;;;;;38.83;25.27;;;;;;;;;;5118260;28;20433;-79
2022/12/24 10:06:34;;;;;;;30.23;26.20;;;;;;;;;;5119547;28;20441;-79
2022/12/24 10:09:10;;;;;;;26.00;23.43;;;;;;;;;;5118860;27;21063;-79
2022/12/24 10:11:42;;;;;;;24.90;22.70;;;;;;;;;;5119185;28;20433;-79
2022/12/24 10:14:16;;;;;;;24.87;22.20;;;;;;;;;;5118489;28;20479;-79
2022/12/24 10:16:49;;;;;;;24.20;21.73;;;;;;;;;;5119038;28;20458;-79
2022/12/24 10:19:18;;;;;;;27.70;24.90;;;;;;;;;;5119465;27;20784;-79
2022/12/24 10:21:51;;;;;;;25.00;22.67;;;;;;;;;;5118329;28;20455;-79
2022/12/24 10:24:22;;;;;;;26.13;23.70;;;;;;;;;;5118050;28;20487;-79
2022/12/24 10:26:51;;;;;;;27.80;23.27;;;;;;;;;;5117790;27;20472;-79
2022/12/24 10:29:21;;;;;;;24.80;21.83;;;;;;;;;;5118304;28;20435;-79
2022/12/24 10:31:51;;;;;;;25.30;22.70;;;;;;;;;;5118005;28;20847;-80
2022/12/24 10:34:20;;;;;;;23.70;21.77;;;;;;;;;;5118057;28;20437;-80
2022/12/24 10:36:47;;;;;;;20.27;18.77;;;;;;;;;;5118375;28;20834;-79
2022/12/24 10:39:17;;;;;;;24.03;19.57;;;;;;;;;;5118206;27;20800;-79
2022/12/24 10:41:46;;;;;;;24.37;21.50;;;;;;;;;;5118356;28;20418;-79
2022/12/24 10:44:16;;;;;;;21.17;19.97;;;;;;;;;;5117930;28;20485;-80
2022/12/24 10:46:44;;;;;;;23.87;21.50;;;;;;;;;;5117391;27;20446;-79
2022/12/24 10:49:14;;;;;;;23.03;20.80;;;;;;;;;;5118070;28;20447;-79
2022/12/24 10:51:44;;;;;;;22.00;20.13;;;;;;;;;;5117962;28;20478;-79
2022/12/24 10:54:14;;;;;;;25.23;23.13;;;;;;;;;;5117389;28;20469;-80
2022/12/24 10:56:42;;;;;;;28.03;23.80;;;;;;;;;;5116458;27;20529;-79
2022/12/24 10:59:22;;;;;;;23.10;21.17;;;;;;;;;;5118593;28;20447;-79
2022/12/24 11:01:50;;;;;;;25.30;22.57;;;;;;;;;;5118175;28;20432;-79
2022/12/24 11:04:18;;;;;;;25.23;22.20;;;;;;;;;;5117373;28;20422;-79
2022/12/24 11:06:58;;;;;;;391.50;150.95;;;;;;;;;;5118035;28;20865;-80
2022/12/24 11:09:27;;;;;;;26.23;22.57;;;;;;;;;;5116457;28;20236;-79
2022/12/24 11:11:55;;;;;;;24.27;21.87;;;;;;;;;;5115971;28;20467;-79
2022/12/24 11:14:23;;;;;;;21.37;19.40;;;;;;;;;;5115527;27;20560;-80
2022/12/24 11:16:52;;;;;;;23.43;21.13;;;;;;;;;;5117629;28;20455;-79
2022/12/24 11:19:20;;;;;;;21.67;19.50;;;;;;;;;;5117191;28;20519;-78
2022/12/24 11:21:47;;;;;;;22.83;20.50;;;;;;;;;;5117367;28;20493;-79
2022/12/24 11:24:26;;;;;;;44.10;19.10;;;;;;;;;;5116771;28;20472;-79
2022/12/24 11:26:53;;;;;;;22.53;20.53;;;;;;;;;;5116840;27;20475;-80
2022/12/24 11:29:21;;;;;;;20.00;18.70;;;;;;;;;;5117616;28;20443;-80
2022/12/24 11:31:51;;;;;;;22.47;20.00;;;;;;;;;;5117570;28;20459;-79
2022/12/24 11:34:20;;;;;;;21.20;19.30;;;;;;;;;;5117057;28;20504;-79
2022/12/24 11:36:47;;;;;;;22.87;20.40;;;;;;;;;;5116588;27;20486;-79
2022/12/24 11:39:19;;;;;;;26.23;21.67;;;;;;;;;;5117476;28;20448;-79
2022/12/24 11:41:47;;;;;;;21.70;19.50;;;;;;;;;;5117490;28;20435;-79
2022/12/24 11:44:14;;;;;;;23.63;21.67;;;;;;;;;;5116394;28;20426;-79
2022/12/24 11:46:43;;;;;;;21.57;19.83;;;;;;;;;;5119066;27;20862;-81
2022/12/24 11:49:16;;;;;;;25.67;21.50;;;;;;;;;;5118903;28;20443;-81
2022/12/24 11:51:58;;;;;;;23.20;21.30;;;;;;;;;;5118942;27;20501;-81
2022/12/24 11:54:29;;;;;;;22.90;20.57;;;;;;;;;;5118388;28;20489;-82
2022/12/24 11:56:59;;;;;;;32.90;21.40;;;;;;;;;;5119172;28;20473;-82
2022/12/24 11:59:29;;;;;;;27.20;23.47;;;;;;;;;;5119069;28;20428;-81
2022/12/24 12:01:59;;;;;;;24.50;21.87;;;;;;;;;;5118624;28;20889;-81
2022/12/24 12:04:29;;;;;;;22.60;20.53;;;;;;;;;;5118255;28;20987;-82
2022/12/24 12:06:59;;;;;;;32.17;22.87;;;;;;;;;;5118066;27;20869;-82
2022/12/24 12:09:28;;;;;;;21.83;20.30;;;;;;;;;;5118988;28;20484;-81
2022/12/24 12:11:57;;;;;;;21.70;20.20;;;;;;;;;;5118663;28;20838;-81
2022/12/24 12:14:28;;;;;;;24.03;21.37;;;;;;;;;;5118112;28;20483;-81
2022/12/24 12:17:02;;;;;;;23.27;19.63;;;;;;;;;;5117885;27;20479;-82
2022/12/24 12:19:33;;;;;;;24.67;22.10;;;;;;;;;;5119713;28;20432;-82
2022/12/24 12:22:00;;;;;;;23.20;21.43;;;;;;;;;;5119238;28;20504;-81
2022/12/24 12:24:29;;;;;;;27.53;24.93;;;;;;;;;;5117817;28;20496;-82
2022/12/24 12:27:01;;;;;;;25.70;23.27;;;;;;;;;;5118040;28;20471;-82
2022/12/24 12:29:31;;;;;;;24.13;21.00;;;;;;;;;;5118606;28;20461;-79
2022/12/24 12:32:03;;;;;;;27.13;22.80;;;;;;;;;;5118665;27;20502;-83
2022/12/24 12:34:33;;;;;;;22.60;20.37;;;;;;;;;;5120143;28;20467;-84
2022/12/24 12:37:05;;;;;;;24.13;21.80;;;;;;;;;;5122638;28;20466;-83
2022/12/24 12:39:32;;;;;;;25.00;22.80;;;;;;;;;;5122675;28;20462;-83
2022/12/24 12:42:03;;;;;;;32.30;22.00;;;;;;;;;;5123873;28;20820;-83
2022/12/24 12:44:37;;;;;;;27.93;22.37;;;;;;;;;;5122790;28;20489;-83
2022/12/24 12:47:15;;;;;;;30.60;22.30;;;;;;;;;;5121675;27;20474;-82
2022/12/24 12:49:46;;;;;;;23.33;21.10;;;;;;;;;;5123083;28;20904;-81
2022/12/24 12:52:20;;;;;;;23.93;21.77;;;;;;;;;;5121797;28;20504;-85
2022/12/24 12:54:54;;;;;;;21.60;19.90;;;;;;;;;;5119545;28;20475;-85
2022/12/24 12:57:24;;;;;;;25.00;21.90;;;;;;;;;;5119702;27;20483;-88
2022/12/24 12:59:53;;;;;;;25.10;21.93;;;;;;;;;;5119418;28;20492;-79
2022/12/24 13:02:29;;;;;;;23.27;21.60;;;;;;;;;;5117553;28;20501;-83
2022/12/24 13:05:14;;;;;;;23.57;21.70;;;;;;;;;;5116857;28;20493;-82
2022/12/24 13:07:51;;;;;;;25.23;22.83;;;;;;;;;;5116800;28;20407;-82
2022/12/24 13:10:45;;;;;;;26.53;22.50;;;;;;;;;;5116564;28;20451;-82
2022/12/24 13:13:29;;;;;;;23.27;20.97;;;;;;;;;;5116138;28;20478;-82
2022/12/24 13:16:03;;;;;;;28.17;22.17;;;;;;;;;;5116806;28;20466;-82
2022/12/24 13:18:36;;;;;;;23.13;20.97;;;;;;;;;;5117724;28;20462;-84
2022/12/24 13:21:04;;;;;;;23.37;20.97;;;;;;;;;;5122286;27;20489;-83
2022/12/24 13:23:31;;;;;;;20.70;18.77;;;;;;;;;;5121257;28;20931;-83
2022/12/24 13:25:59;;;;;;;23.40;21.43;;;;;;;;;;5122741;28;20505;-83
2022/12/24 13:28:33;;;;;;;24.23;22.03;;;;;;;;;;5121471;28;20428;-82
2022/12/24 13:31:19;;;;;;;23.33;21.30;;;;;;;;;;5121455;28;20486;-82
2022/12/24 13:33:47;;;;;;;24.33;21.90;;;;;;;;;;5120984;28;20487;-83
2022/12/24 13:36:16;;;;;;;21.67;20.17;;;;;;;;;;5121284;27;20527;-91
2022/12/24 13:38:43;;;;;;;23.73;21.60;;;;;;;;;;5121609;28;20455;-83
2022/12/24 13:41:29;;;;;;;21.43;19.53;;;;;;;;;;5122438;28;20422;-83
2022/12/24 13:44:03;;;;;;;23.77;21.70;;;;;;;;;;5124197;28;20414;-82
2022/12/24 13:46:50;;;;;;;23.90;22.03;;;;;;;;;;5122583;28;20475;-87
2022/12/24 13:49:19;;;;;;;21.13;19.63;;;;;;;;;;5122397;28;20435;-86
2022/12/24 13:51:48;;;;;;;27.53;23.03;;;;;;;;;;5122912;28;20451;-85
2022/12/24 13:54:19;;;;;;;24.03;21.50;;;;;;;;;;5123753;28;20493;-84
2022/12/24 13:56:46;;;;;;;24.10;22.00;;;;;;;;;;5123138;28;20440;-83
2022/12/24 13:59:23;;;;;;;25.03;22.67;;;;;;;;;;5123964;28;20451;-84
2022/12/24 14:01:50;;;;;;;35.80;24.53;;;;;;;;;;5124276;28;20919;-84
2022/12/24 14:04:23;;;;;;;25.47;22.87;;;;;;;;;;5123819;28;20418;-83
2022/12/24 14:06:52;;;;;;;22.50;20.37;;;;;;;;;;5122836;28;20468;-83
2022/12/24 14:09:20;;;;;;;26.00;20.90;;;;;;;;;;5123517;28;20458;-84
2022/12/24 14:12:06;;;;;;;26.13;22.10;;;;;;;;;;5121267;28;20444;-82
2022/12/24 14:14:34;;;;;;;25.00;22.40;;;;;;;;;;5119965;28;20489;-82
2022/12/24 14:17:03;;;;;;;21.40;19.60;;;;;;;;;;5119729;27;20483;-83
2022/12/24 14:19:31;;;;;;;25.90;23.23;;;;;;;;;;5120193;27;20428;-82
2022/12/24 14:22:03;;;;;;;23.60;21.50;;;;;;;;;;5120200;28;20419;-83
2022/12/24 14:24:33;;;;;;;23.10;21.10;;;;;;;;;;5119485;28;20792;-82
2022/12/24 14:27:06;;;;;;;25.10;22.80;;;;;;;;;;5119372;28;20541;-83
2022/12/24 14:29:34;;;;;;;22.33;19.97;;;;;;;;;;5119981;28;20818;-82
2022/12/24 14:32:03;;;;;;;23.83;21.73;;;;;;;;;;5118993;28;20943;-82
2022/12/24 14:34:30;;;;;;;22.37;20.47;;;;;;;;;;5119771;28;20494;-82
2022/12/24 14:36:59;;;;;;;28.57;23.27;;;;;;;;;;5119794;27;20482;-82